sensor_id;sensor_type;location;lat;lon;timestamp;pressure;altitude;pressure_sealevel;temperature;humidity
62697;BME280;48761;42.680;23.312;2022-12-05T00:01:21;95767.63;;;4.18;90.79
62697;BME280;48761;42.680;23.312;2022-12-05T00:03:50;95773.91;;;4.13;91.10
62697;BME280;48761;42.680;23.312;2022-12-05T00:06:17;95776.50;;;4.15;91.11
62697;BME280;48761;42.680;23.312;2022-12-05T00:08:43;95782.91;;;4.36;90.81
62697;BME280;48761;42.680;23.312;2022-12-05T00:11:14;95770.72;;;4.32;90.09
62697;BME280;48761;42.680;23.312;2022-12-05T00:13:41;95770.53;;;4.39;89.74
62697;BME280;48761;42.680;23.312;2022-12-05T00:16:09;95766.44;;;4.30;90.17
62697;BME280;48761;42.680;23.312;2022-12-05T00:18:36;95781.25;;;4.32;90.10
62697;BME280;48761;42.680;23.312;2022-12-05T00:21:02;95775.22;;;4.29;90.28
62697;BME280;48761;42.680;23.312;2022-12-05T00:23:28;95776.91;;;4.31;90.36
62697;BME280;48761;42.680;23.312;2022-12-05T00:25:54;95784.03;;;4.28;90.51
62697;BME280;48761;42.680;23.312;2022-12-05T00:28:20;95786.88;;;4.20;90.25
62697;BME280;48761;42.680;23.312;2022-12-05T00:30:46;95768.97;;;4.02;90.63
62697;BME280;48761;42.680;23.312;2022-12-05T00:33:12;95794.97;;;4.13;90.96
62697;BME280;48761;42.680;23.312;2022-12-05T00:35:38;95788.91;;;4.10;90.81
62697;BME280;48761;42.680;23.312;2022-12-05T00:38:04;95791.63;;;4.08;90.71
62697;BME280;48761;42.680;23.312;2022-12-05T00:40:30;95786.72;;;3.96;91.13
62697;BME280;48761;42.680;23.312;2022-12-05T00:42:56;95789.88;;;4.07;91.51
62697;BME280;48761;42.680;23.312;2022-12-05T00:45:22;95785.81;;;3.97;91.50
62697;BME280;48761;42.680;23.312;2022-12-05T00:47:48;95789.06;;;4.05;91.97
62697;BME280;48761;42.680;23.312;2022-12-05T00:50:14;95776.34;;;4.20;91.03
62697;BME280;48761;42.680;23.312;2022-12-05T00:52:40;95785.31;;;4.14;90.79
62697;BME280;48761;42.680;23.312;2022-12-05T00:55:06;95784.81;;;4.01;91.35
62697;BME280;48761;42.680;23.312;2022-12-05T00:57:32;95783.06;;;4.00;91.48
62697;BME280;48761;42.680;23.312;2022-12-05T00:59:58;95774.81;;;4.12;91.54
62697;BME280;48761;42.680;23.312;2022-12-05T01:02:24;95774.88;;;4.11;91.04
62697;BME280;48761;42.680;23.312;2022-12-05T01:04:50;95768.88;;;4.06;91.31
62697;BME280;48761;42.680;23.312;2022-12-05T01:07:16;95760.31;;;3.99;91.44
62697;BME280;48761;42.680;23.312;2022-12-05T01:09:42;95762.84;;;4.02;91.82
62697;BME280;48761;42.680;23.312;2022-12-05T01:12:08;95771.34;;;4.12;91.46
62697;BME280;48761;42.680;23.312;2022-12-05T01:14:34;95765.06;;;4.16;91.28
62697;BME280;48761;42.680;23.312;2022-12-05T01:17:00;95759.31;;;4.03;91.69
62697;BME280;48761;42.680;23.312;2022-12-05T01:19:29;95763.91;;;3.95;91.74
62697;BME280;48761;42.680;23.312;2022-12-05T01:21:56;95769.19;;;3.95;91.95
62697;BME280;48761;42.680;23.312;2022-12-05T01:24:22;95766.09;;;4.10;91.51
62697;BME280;48761;42.680;23.312;2022-12-05T01:26:49;95763.06;;;4.24;91.17
62697;BME280;48761;42.680;23.312;2022-12-05T01:29:17;95751.75;;;4.21;90.93
62697;BME280;48761;42.680;23.312;2022-12-05T01:31:44;95740.25;;;3.95;91.59
62697;BME280;48761;42.680;23.312;2022-12-05T01:34:13;95751.91;;;4.16;91.99
62697;BME280;48761;42.680;23.312;2022-12-05T01:36:39;95747.06;;;4.02;92.03
62697;BME280;48761;42.680;23.312;2022-12-05T01:39:07;95743.00;;;3.90;92.87
62697;BME280;48761;42.680;23.312;2022-12-05T01:41:36;95736.22;;;3.83;92.99
62697;BME280;48761;42.680;23.312;2022-12-05T01:44:07;95731.38;;;3.99;93.04
62697;BME280;48761;42.680;23.312;2022-12-05T01:46:52;95739.44;;;3.92;92.95
62697;BME280;48761;42.680;23.312;2022-12-05T01:49:21;95712.66;;;3.78;92.99
62697;BME280;48761;42.680;23.312;2022-12-05T01:51:52;95736.88;;;3.89;93.61
62697;BME280;48761;42.680;23.312;2022-12-05T01:54:20;95735.44;;;4.09;93.21
62697;BME280;48761;42.680;23.312;2022-12-05T01:56:54;95741.31;;;4.18;92.20
62697;BME280;48761;42.680;23.312;2022-12-05T01:59:21;95720.75;;;4.02;91.87
62697;BME280;48761;42.680;23.312;2022-12-05T02:01:48;95741.56;;;4.10;92.01
62697;BME280;48761;42.680;23.312;2022-12-05T02:04:15;95723.78;;;3.88;92.98
62697;BME280;48761;42.680;23.312;2022-12-05T02:06:41;95730.56;;;3.97;92.74
62697;BME280;48761;42.680;23.312;2022-12-05T02:09:07;95743.50;;;4.03;92.62
62697;BME280;48761;42.680;23.312;2022-12-05T02:11:35;95745.97;;;4.09;92.26
62697;BME280;48761;42.680;23.312;2022-12-05T02:14:20;95730.59;;;3.95;92.79
62697;BME280;48761;42.680;23.312;2022-12-05T02:20:24;95748.59;;;4.09;92.33
62697;BME280;48761;42.680;23.312;2022-12-05T02:31:07;95741.53;;;4.11;92.27
62697;BME280;48761;42.680;23.312;2022-12-05T02:33:45;95722.38;;;4.06;92.49
62697;BME280;48761;42.680;23.312;2022-12-05T02:36:17;95733.28;;;4.22;92.40
62697;BME280;48761;42.680;23.312;2022-12-05T02:39:20;95741.50;;;4.42;91.22
62697;BME280;48761;42.680;23.312;2022-12-05T02:41:54;95732.06;;;4.34;91.02
62697;BME280;48761;42.680;23.312;2022-12-05T02:44:46;95725.28;;;4.27;90.99
62697;BME280;48761;42.680;23.312;2022-12-05T02:47:18;95728.00;;;4.24;91.71
62697;BME280;48761;42.680;23.312;2022-12-05T02:49:46;95714.63;;;4.30;91.50
62697;BME280;48761;42.680;23.312;2022-12-05T02:52:15;95726.69;;;4.37;91.16
62697;BME280;48761;42.680;23.312;2022-12-05T02:54:45;95719.31;;;4.49;90.29
62697;BME280;48761;42.680;23.312;2022-12-05T02:57:12;95721.22;;;4.44;90.51
62697;BME280;48761;42.680;23.312;2022-12-05T02:59:38;95711.00;;;4.34;90.73
62697;BME280;48761;42.680;23.312;2022-12-05T03:02:07;95726.69;;;4.37;90.67
62697;BME280;48761;42.680;23.312;2022-12-05T03:04:34;95729.44;;;4.34;91.27
62697;BME280;48761;42.680;23.312;2022-12-05T03:07:06;95707.69;;;4.28;91.23
62697;BME280;48761;42.680;23.312;2022-12-05T03:09:44;95727.50;;;4.40;91.14
62697;BME280;48761;42.680;23.312;2022-12-05T03:12:22;95725.72;;;4.40;90.55
62697;BME280;48761;42.680;23.312;2022-12-05T03:15:04;95714.63;;;4.30;91.45
62697;BME280;48761;42.680;23.312;2022-12-05T03:17:35;95725.78;;;4.39;90.79
62697;BME280;48761;42.680;23.312;2022-12-05T03:20:10;95725.06;;;4.33;90.94
62697;BME280;48761;42.680;23.312;2022-12-05T03:22:44;95714.91;;;4.21;91.34
62697;BME280;48761;42.680;23.312;2022-12-05T03:25:11;95721.63;;;4.31;91.64
62697;BME280;48761;42.680;23.312;2022-12-05T03:28:20;95725.06;;;4.33;91.14
62697;BME280;48761;42.680;23.312;2022-12-05T03:30:26;95726.97;;;4.28;91.28
62697;BME280;48761;42.680;23.312;2022-12-05T03:33:02;95729.44;;;4.34;91.10
62697;BME280;48761;42.680;23.312;2022-12-05T03:46:29;95726.78;;;4.34;91.14
62697;BME280;48761;42.680;23.312;2022-12-05T03:49:02;95730.31;;;4.33;90.86
62697;BME280;48761;42.680;23.312;2022-12-05T03:52:04;95711.00;;;4.34;90.54
62697;BME280;48761;42.680;23.312;2022-12-05T03:54:35;95735.97;;;4.50;90.58
62697;BME280;48761;42.680;23.312;2022-12-05T03:57:10;95731.84;;;4.41;90.40
62697;BME280;48761;42.680;23.312;2022-12-05T03:59:46;95733.19;;;4.54;89.85
62697;BME280;48761;42.680;23.312;2022-12-05T04:02:20;95722.97;;;4.45;90.28
62697;BME280;48761;42.680;23.312;2022-12-05T04:04:55;95738.66;;;4.48;90.04
62697;BME280;48761;42.680;23.312;2022-12-05T04:07:23;95697.13;;;4.29;89.54
62697;BME280;48761;42.680;23.312;2022-12-05T04:10:00;95705.81;;;4.31;89.95
62697;BME280;48761;42.680;23.312;2022-12-05T04:12:29;95720.50;;;4.39;89.84
62697;BME280;48761;42.680;23.312;2022-12-05T04:15:04;95722.47;;;4.32;90.56
62697;BME280;48761;42.680;23.312;2022-12-05T04:17:52;95714.13;;;4.17;90.61
62697;BME280;48761;42.680;23.312;2022-12-05T04:20:25;95714.03;;;4.22;91.02
62697;BME280;48761;42.680;23.312;2022-12-05T04:22:52;95705.25;;;4.21;91.33
62697;BME280;48761;42.680;23.312;2022-12-05T04:25:18;95706.22;;;4.19;91.31
62697;BME280;48761;42.680;23.312;2022-12-05T04:27:58;95705.63;;;4.09;91.75
62697;BME280;48761;42.680;23.312;2022-12-05T04:30:40;95711.84;;;4.06;92.14
62697;BME280;48761;42.680;23.312;2022-12-05T04:33:14;95711.75;;;4.09;92.35
62697;BME280;48761;42.680;23.312;2022-12-05T04:35:49;95713.38;;;4.13;92.09
62697;BME280;48761;42.680;23.312;2022-12-05T04:38:28;95715.88;;;4.18;91.54
62697;BME280;48761;42.680;23.312;2022-12-05T04:40:59;95714.25;;;4.14;91.56
62697;BME280;48761;42.680;23.312;2022-12-05T04:43:30;95708.13;;;4.13;92.08
62697;BME280;48761;42.680;23.312;2022-12-05T04:45:59;95728.94;;;4.21;91.75
62697;BME280;48761;42.680;23.312;2022-12-05T04:48:28;95710.69;;;4.15;91.57
62697;BME280;48761;42.680;23.312;2022-12-05T04:50:56;95726.88;;;4.31;91.27
62697;BME280;48761;42.680;23.312;2022-12-05T04:53:25;95727.94;;;4.25;91.32
62697;BME280;48761;42.680;23.312;2022-12-05T04:55:54;95703.38;;;4.25;91.51
62697;BME280;48761;42.680;23.312;2022-12-05T04:58:24;95727.94;;;4.25;91.65
62697;BME280;48761;42.680;23.312;2022-12-05T05:00:56;95728.13;;;4.19;92.03
62697;BME280;48761;42.680;23.312;2022-12-05T05:03:29;95733.25;;;4.24;91.95
62697;BME280;48761;42.680;23.312;2022-12-05T05:05:56;95721.06;;;4.20;91.66
62697;BME280;48761;42.680;23.312;2022-12-05T05:08:27;95743.44;;;4.35;91.74
62697;BME280;48761;42.680;23.312;2022-12-05T05:13:21;95738.56;;;4.51;90.86
62697;BME280;48761;42.680;23.312;2022-12-05T05:15:47;95746.59;;;4.46;90.81
62697;BME280;48761;42.680;23.312;2022-12-05T05:18:13;95748.75;;;4.33;91.29
62697;BME280;48761;42.680;23.312;2022-12-05T05:20:39;95747.47;;;4.47;90.71
62697;BME280;48761;42.680;23.312;2022-12-05T05:23:05;95763.44;;;4.41;90.67
62697;BME280;48761;42.680;23.312;2022-12-05T05:25:31;95759.63;;;4.51;90.66
62697;BME280;48761;42.680;23.312;2022-12-05T05:27:57;95747.47;;;4.47;90.72
62697;BME280;48761;42.680;23.312;2022-12-05T05:30:23;95758.50;;;4.58;90.57
62697;BME280;48761;42.680;23.312;2022-12-05T05:32:50;95756.75;;;4.59;90.42
62697;BME280;48761;42.680;23.312;2022-12-05T05:35:16;95769.78;;;4.64;89.99
62697;BME280;48761;42.680;23.312;2022-12-05T05:37:42;95762.16;;;4.54;89.91
62697;BME280;48761;42.680;23.312;2022-12-05T05:40:11;95756.09;;;4.52;90.55
62697;BME280;48761;42.680;23.312;2022-12-05T05:42:45;95762.91;;;4.58;90.32
62697;BME280;48761;42.680;23.312;2022-12-05T05:45:13;95762.09;;;4.56;90.21
62697;BME280;48761;42.680;23.312;2022-12-05T05:47:39;95755.22;;;4.52;90.70
62697;BME280;48761;42.680;23.312;2022-12-05T05:50:05;95752.81;;;4.44;90.42
62697;BME280;48761;42.680;23.312;2022-12-05T05:52:33;95758.28;;;4.37;90.99
62697;BME280;48761;42.680;23.312;2022-12-05T05:54:59;95746.50;;;4.21;91.54
62697;BME280;48761;42.680;23.312;2022-12-05T05:57:26;95755.28;;;4.20;91.66
62697;BME280;48761;42.680;23.312;2022-12-05T05:59:51;95779.53;;;4.31;92.00
62697;BME280;48761;42.680;23.312;2022-12-05T06:02:18;95755.94;;;4.28;91.82
62697;BME280;48761;42.680;23.312;2022-12-05T06:04:44;95775.72;;;4.42;91.36
62697;BME280;48761;42.680;23.312;2022-12-05T06:07:10;95763.88;;;4.26;91.78
62697;BME280;48761;42.680;23.312;2022-12-05T06:09:36;95774.69;;;4.46;91.12
62697;BME280;48761;42.680;23.312;2022-12-05T06:12:02;95779.16;;;4.44;90.86
62697;BME280;48761;42.680;23.312;2022-12-05T06:14:28;95787.78;;;4.49;91.48
62697;BME280;48761;42.680;23.312;2022-12-05T06:16:54;95779.06;;;4.47;91.01
62697;BME280;48761;42.680;23.312;2022-12-05T06:19:20;95779.16;;;4.44;91.16
62697;BME280;48761;42.680;23.312;2022-12-05T06:21:48;95786.16;;;4.45;90.98
62697;BME280;48761;42.680;23.312;2022-12-05T06:24:14;95783.53;;;4.45;90.79
62697;BME280;48761;42.680;23.312;2022-12-05T06:26:40;95778.88;;;4.53;90.82
62697;BME280;48761;42.680;23.312;2022-12-05T06:29:06;95747.06;;;4.31;90.86
62697;BME280;48761;42.680;23.312;2022-12-05T06:31:31;95774.47;;;4.54;90.45
62697;BME280;48761;42.680;23.312;2022-12-05T06:34:01;95772.47;;;4.62;90.33
62697;BME280;48761;42.680;23.312;2022-12-05T06:36:28;95781.31;;;4.59;90.45
62697;BME280;48761;42.680;23.312;2022-12-05T06:38:58;95783.97;;;4.59;90.16
62697;BME280;48761;42.680;23.312;2022-12-05T06:41:25;95787.50;;;4.58;90.19
62697;BME280;48761;42.680;23.312;2022-12-05T06:43:53;95789.09;;;4.63;90.38
62697;BME280;48761;42.680;23.312;2022-12-05T06:46:20;95775.13;;;4.60;89.84
62697;BME280;48761;42.680;23.312;2022-12-05T06:48:46;95779.56;;;4.60;89.79
62697;BME280;48761;42.680;23.312;2022-12-05T06:51:15;95765.69;;;4.53;89.93
62697;BME280;48761;42.680;23.312;2022-12-05T06:53:42;95789.09;;;4.63;90.33
62697;BME280;48761;42.680;23.312;2022-12-05T06:56:15;95769.97;;;4.57;89.82
62697;BME280;48761;42.680;23.312;2022-12-05T06:58:43;95765.28;;;4.39;90.05
62697;BME280;48761;42.680;23.312;2022-12-05T07:01:13;95789.41;;;4.53;90.19
62697;BME280;48761;42.680;23.312;2022-12-05T07:03:40;95787.88;;;4.46;90.32
62697;BME280;48761;42.680;23.312;2022-12-05T07:06:07;95779.09;;;4.45;90.29
62697;BME280;48761;42.680;23.312;2022-12-05T07:08:33;95786.03;;;4.48;90.46
62697;BME280;48761;42.680;23.312;2022-12-05T07:11:00;95790.31;;;4.52;90.50
62697;BME280;48761;42.680;23.312;2022-12-05T07:13:26;95789.50;;;4.50;90.04
62697;BME280;48761;42.680;23.312;2022-12-05T07:15:53;95773.81;;;4.47;90.32
62697;BME280;48761;42.680;23.312;2022-12-05T07:18:18;95791.22;;;4.51;89.96
62697;BME280;48761;42.680;23.312;2022-12-05T07:20:44;95796.56;;;4.48;90.09
62697;BME280;48761;42.680;23.312;2022-12-05T07:23:19;95799.94;;;4.53;89.97
62697;BME280;48761;42.680;23.312;2022-12-05T07:25:45;95803.38;;;4.55;89.88
62697;BME280;48761;42.680;23.312;2022-12-05T07:28:11;95796.34;;;4.56;89.89
62697;BME280;48761;42.680;23.312;2022-12-05T07:30:37;95798.81;;;4.62;89.61
62697;BME280;48761;42.680;23.312;2022-12-05T07:33:03;95804.72;;;4.69;89.17
62697;BME280;48761;42.680;23.312;2022-12-05T07:35:29;95776.19;;;4.55;89.56
62697;BME280;48761;42.680;23.312;2022-12-05T07:37:55;95813.53;;;4.68;89.43
62697;BME280;48761;42.680;23.312;2022-12-05T07:40:21;95797.84;;;4.65;89.65
62697;BME280;48761;42.680;23.312;2022-12-05T07:42:47;95815.28;;;4.69;89.44
62697;BME280;48761;42.680;23.312;2022-12-05T07:45:13;95810.09;;;4.66;89.94
62697;BME280;48761;42.680;23.312;2022-12-05T07:47:39;95773.91;;;4.44;89.84
62697;BME280;48761;42.680;23.312;2022-12-05T07:50:06;95800.63;;;4.60;89.97
62697;BME280;48761;42.680;23.312;2022-12-05T07:52:32;95805.94;;;4.58;89.55
62697;BME280;48761;42.680;23.312;2022-12-05T07:54:58;95805.91;;;4.60;89.99
62697;BME280;48761;42.680;23.312;2022-12-05T07:57:24;95790.56;;;4.44;90.40
62697;BME280;48761;42.680;23.312;2022-12-05T07:59:50;95810.66;;;4.47;90.47
62697;BME280;48761;42.680;23.312;2022-12-05T08:02:16;95774.28;;;4.31;90.57
62697;BME280;48761;42.680;23.312;2022-12-05T08:04:42;95792.03;;;4.53;91.72
62697;BME280;48761;42.680;23.312;2022-12-05T08:07:11;95798.03;;;4.58;90.67
62697;BME280;48761;42.680;23.312;2022-12-05T08:09:37;95799.03;;;4.54;90.63
62697;BME280;48761;42.680;23.312;2022-12-05T08:12:03;95809.94;;;4.42;90.91
62697;BME280;48761;42.680;23.312;2022-12-05T08:14:32;95805.13;;;4.56;90.82
62697;BME280;48761;42.680;23.312;2022-12-05T08:16:58;95817.38;;;4.57;90.73
62697;BME280;48761;42.680;23.312;2022-12-05T08:19:24;95810.09;;;4.66;90.60
62697;BME280;48761;42.680;23.312;2022-12-05T08:21:53;95813.53;;;4.68;90.11
62697;BME280;48761;42.680;23.312;2022-12-05T08:24:19;95799.59;;;4.64;90.11
62697;BME280;48761;42.680;23.312;2022-12-05T08:26:45;95813.75;;;4.62;90.15
62697;BME280;48761;42.680;23.312;2022-12-05T08:29:13;95813.66;;;4.65;90.06
62697;BME280;48761;42.680;23.312;2022-12-05T08:31:45;95783.84;;;4.63;89.70
62697;BME280;48761;42.680;23.312;2022-12-05T08:34:12;95808.50;;;4.89;89.31
62697;BME280;48761;42.680;23.312;2022-12-05T08:36:39;95811.03;;;4.92;89.15
62697;BME280;48761;42.680;23.312;2022-12-05T08:39:06;95807.88;;;4.80;89.00
62697;BME280;48761;42.680;23.312;2022-12-05T08:41:33;95745.72;;;4.46;89.04
62697;BME280;48761;42.680;23.312;2022-12-05T08:44:00;95804.03;;;4.91;88.86
62697;BME280;48761;42.680;23.312;2022-12-05T08:46:27;95802.13;;;4.96;88.53
62697;BME280;48761;42.680;23.312;2022-12-05T08:48:53;95795.00;;;4.98;88.25
62697;BME280;48761;42.680;23.312;2022-12-05T08:51:19;95795.56;;;5.08;88.06
62697;BME280;48761;42.680;23.312;2022-12-05T08:53:45;95742.94;;;4.79;87.67
62697;BME280;48761;42.680;23.312;2022-12-05T08:56:11;95804.88;;;5.20;87.65
62697;BME280;48761;42.680;23.312;2022-12-05T08:58:38;95782.38;;;5.10;87.53
62697;BME280;48761;42.680;23.312;2022-12-05T09:01:18;95807.66;;;5.15;87.41
62697;BME280;48761;42.680;23.312;2022-12-05T09:03:45;95803.13;;;5.19;87.06
62697;BME280;48761;42.680;23.312;2022-12-05T09:06:23;95805.16;;;5.38;86.82
62697;BME280;48761;42.680;23.312;2022-12-05T09:08:53;95783.13;;;5.39;86.00
62697;BME280;48761;42.680;23.312;2022-12-05T09:11:22;95808.34;;;5.48;85.74
62697;BME280;48761;42.680;23.312;2022-12-05T09:13:50;95808.75;;;5.35;85.82
62697;BME280;48761;42.680;23.312;2022-12-05T09:16:25;95794.91;;;5.29;85.84
62697;BME280;48761;42.680;23.312;2022-12-05T09:18:51;95789.63;;;5.29;85.76
62697;BME280;48761;42.680;23.312;2022-12-05T09:21:20;95790.16;;;5.40;85.49
62697;BME280;48761;42.680;23.312;2022-12-05T09:23:47;95787.78;;;5.58;84.17
62697;BME280;48761;42.680;23.312;2022-12-05T09:26:15;95772.22;;;5.50;83.58
62697;BME280;48761;42.680;23.312;2022-12-05T09:28:42;95771.84;;;5.61;83.44
62697;BME280;48761;42.680;23.312;2022-12-05T09:31:12;95725.13;;;5.39;83.22
62697;BME280;48761;42.680;23.312;2022-12-05T09:33:38;95784.38;;;5.80;82.08
62697;BME280;48761;42.680;23.312;2022-12-05T09:36:07;95781.53;;;5.86;81.70
62697;BME280;48761;42.680;23.312;2022-12-05T09:38:33;95778.38;;;5.75;82.11
62697;BME280;48761;42.680;23.312;2022-12-05T09:44:01;95770.53;;;5.73;82.11
62697;BME280;48761;42.680;23.312;2022-12-05T09:46:51;95767.84;;;5.75;82.28
62697;BME280;48761;42.680;23.312;2022-12-05T09:49:18;95759.19;;;5.45;82.88
62697;BME280;48761;42.680;23.312;2022-12-05T09:51:45;95748.06;;;5.37;83.13
62697;BME280;48761;42.680;23.312;2022-12-05T09:54:14;95763.09;;;5.59;83.15
62697;BME280;48761;42.680;23.312;2022-12-05T09:56:42;95767.94;;;5.71;82.50
62697;BME280;48761;42.680;23.312;2022-12-05T09:59:12;95750.75;;;5.61;82.38
62697;BME280;48761;42.680;23.312;2022-12-05T10:01:56;95758.66;;;5.85;81.57
62697;BME280;48761;42.680;23.312;2022-12-05T10:10:31;95742.59;;;5.67;81.34
62697;BME280;48761;42.680;23.312;2022-12-05T10:15:41;95749.25;;;6.02;81.00
62697;BME280;48761;42.680;23.312;2022-12-05T10:21:46;95749.84;;;5.86;81.80
62697;BME280;48761;42.680;23.312;2022-12-05T10:24:17;95736.78;;;5.57;83.13
62697;BME280;48761;42.680;23.312;2022-12-05T10:26:59;95748.78;;;5.66;83.41
62697;BME280;48761;42.680;23.312;2022-12-05T10:29:32;95728.44;;;5.44;83.38
62697;BME280;48761;42.680;23.312;2022-12-05T10:32:22;95750.09;;;5.54;83.65
62697;BME280;48761;42.680;23.312;2022-12-05T10:34:53;95748.91;;;5.63;83.58
62697;BME280;48761;42.680;23.312;2022-12-05T10:37:24;95736.16;;;5.51;83.99
62697;BME280;48761;42.680;23.312;2022-12-05T10:39:51;95729.84;;;5.55;83.80
62697;BME280;48761;42.680;23.312;2022-12-05T10:42:30;95735.13;;;5.55;83.77
62697;BME280;48761;42.680;23.312;2022-12-05T10:45:04;95722.97;;;5.51;83.66
62697;BME280;48761;42.680;23.312;2022-12-05T10:47:31;95722.72;;;5.57;83.75
62697;BME280;48761;42.680;23.312;2022-12-05T10:50:03;95722.53;;;5.63;83.68
62697;BME280;48761;42.680;23.312;2022-12-05T10:52:30;95720.59;;;5.68;83.48
62697;BME280;48761;42.680;23.312;2022-12-05T10:55:01;95728.38;;;5.71;83.31
62697;BME280;48761;42.680;23.312;2022-12-05T10:57:30;95727.28;;;5.77;82.96
62697;BME280;48761;42.680;23.312;2022-12-05T11:00:12;95708.41;;;5.64;83.03
62697;BME280;48761;42.680;23.312;2022-12-05T11:02:41;95724.06;;;5.69;83.15
62697;BME280;48761;42.680;23.312;2022-12-05T11:05:08;95718.63;;;5.74;82.98
62697;BME280;48761;42.680;23.312;2022-12-05T11:07:46;95707.72;;;5.59;83.50
62697;BME280;48761;42.680;23.312;2022-12-05T11:10:30;95711.28;;;5.58;83.96
62697;BME280;48761;42.680;23.312;2022-12-05T11:12:58;95693.97;;;5.51;84.14
62697;BME280;48761;42.680;23.312;2022-12-05T11:15:27;95714.38;;;5.69;84.05
62697;BME280;48761;42.680;23.312;2022-12-05T11:17:56;95691.78;;;5.62;83.77
62697;BME280;48761;42.680;23.312;2022-12-05T11:22:55;95699.34;;;5.71;84.00
62697;BME280;48761;42.680;23.312;2022-12-05T11:27:50;95642.34;;;5.43;83.89
62697;BME280;48761;42.680;23.312;2022-12-05T11:30:21;95695.44;;;5.82;83.89
62697;BME280;48761;42.680;23.312;2022-12-05T11:32:47;95677.53;;;5.66;83.70
62697;BME280;48761;42.680;23.312;2022-12-05T11:35:25;95695.78;;;5.72;84.00
62697;BME280;48761;42.680;23.312;2022-12-05T11:38:02;95682.47;;;5.52;84.60
62697;BME280;48761;42.680;23.312;2022-12-05T11:43:51;95676.75;;;5.64;84.09
62697;BME280;48761;42.680;23.312;2022-12-05T11:47:02;95634.91;;;5.31;84.34
62697;BME280;48761;42.680;23.312;2022-12-05T11:52:31;95647.88;;;5.61;84.53
62697;BME280;48761;42.680;23.312;2022-12-05T11:58:04;95664.50;;;5.63;84.35
62697;BME280;48761;42.680;23.312;2022-12-05T12:06:18;95623.53;;;5.29;84.96
62697;BME280;48761;42.680;23.312;2022-12-05T12:08:53;95650.81;;;5.52;85.11
62697;BME280;48761;42.680;23.312;2022-12-05T12:14:26;95649.22;;;5.47;85.55
62697;BME280;48761;42.680;23.312;2022-12-05T12:25:23;95636.72;;;5.53;85.67
62697;BME280;48761;42.680;23.312;2022-12-05T12:33:08;95628.69;;;5.80;84.67
62697;BME280;48761;42.680;23.312;2022-12-05T12:52:03;95590.94;;;5.54;85.25
62697;BME280;48761;42.680;23.312;2022-12-05T12:55:17;95622.09;;;5.68;85.37
62697;BME280;48761;42.680;23.312;2022-12-05T13:03:16;95621.47;;;5.37;86.82
62697;BME280;48761;42.680;23.312;2022-12-05T13:11:01;95604.03;;;5.09;87.53
62697;BME280;48761;42.680;23.312;2022-12-05T13:13:38;95587.41;;;5.07;87.70
62697;BME280;48761;42.680;23.312;2022-12-05T13:16:09;95554.38;;;4.98;86.93
62697;BME280;48761;42.680;23.312;2022-12-05T13:18:38;95624.91;;;5.39;87.10
62697;BME280;48761;42.680;23.312;2022-12-05T13:21:08;95612.19;;;5.26;87.05
62697;BME280;48761;42.680;23.312;2022-12-05T13:23:44;95628.22;;;5.44;86.90
62697;BME280;48761;42.680;23.312;2022-12-05T13:26:12;95625.84;;;5.38;86.99
62697;BME280;48761;42.680;23.312;2022-12-05T13:31:13;95623.41;;;5.32;87.17
62697;BME280;48761;42.680;23.312;2022-12-05T13:33:45;95618.03;;;5.35;87.35
62697;BME280;48761;42.680;23.312;2022-12-05T13:36:13;95627.09;;;5.27;87.86
62697;BME280;48761;42.680;23.312;2022-12-05T13:38:40;95609.09;;;5.15;87.90
62697;BME280;48761;42.680;23.312;2022-12-05T13:41:07;95631.56;;;5.25;88.26
62697;BME280;48761;42.680;23.312;2022-12-05T13:43:40;95623.06;;;5.17;88.18
62697;BME280;48761;42.680;23.312;2022-12-05T13:46:09;95589.78;;;4.89;88.44
62697;BME280;48761;42.680;23.312;2022-12-05T13:48:41;95607.06;;;4.98;88.71
62697;BME280;48761;42.680;23.312;2022-12-05T13:51:21;95589.59;;;4.95;88.56
62697;BME280;48761;42.680;23.312;2022-12-05T13:54:02;95627.47;;;5.16;88.66
62697;BME280;48761;42.680;23.312;2022-12-05T13:56:52;95622.28;;;5.15;88.53
62697;BME280;48761;42.680;23.312;2022-12-05T14:05:39;95633.22;;;5.28;88.36
62697;BME280;48761;42.680;23.312;2022-12-05T14:08:50;95627.31;;;5.21;88.73
62697;BME280;48761;42.680;23.312;2022-12-05T14:11:17;95633.44;;;5.22;88.93
62697;BME280;48761;42.680;23.312;2022-12-05T14:13:43;95621.94;;;5.24;88.55
62697;BME280;48761;42.680;23.312;2022-12-05T14:19:15;95639.25;;;5.32;88.35
62697;BME280;48761;42.680;23.312;2022-12-05T14:27:44;95584.19;;;4.98;87.92
62697;BME280;48761;42.680;23.312;2022-12-05T14:30:25;95634.31;;;5.22;88.32
62697;BME280;48761;42.680;23.312;2022-12-05T14:32:59;95619.72;;;4.88;88.93
62697;BME280;48761;42.680;23.312;2022-12-05T14:35:49;95638.09;;;5.15;89.01
62697;BME280;48761;42.680;23.312;2022-12-05T14:40:47;95631.69;;;5.22;89.05
62697;BME280;48761;42.680;23.312;2022-12-05T14:43:19;95608.16;;;5.16;88.61
62697;BME280;48761;42.680;23.312;2022-12-05T14:50:49;95640.16;;;5.31;88.56
62697;BME280;48761;42.680;23.312;2022-12-05T14:56:00;95628.22;;;5.44;87.91
62697;BME280;48761;42.680;23.312;2022-12-05T15:01:57;95638.44;;;5.54;87.10
62697;BME280;48761;42.680;23.312;2022-12-05T15:07:11;95618.50;;;5.22;87.72
62697;BME280;48761;42.680;23.312;2022-12-05T15:15:11;95589.16;;;5.08;87.92
62697;BME280;48761;42.680;23.312;2022-12-05T15:17:54;95631.22;;;5.59;87.50
62697;BME280;48761;42.680;23.312;2022-12-05T15:20:37;95643.38;;;5.63;87.04
62697;BME280;48761;42.680;23.312;2022-12-05T15:26:24;95633.75;;;5.38;88.57
62697;BME280;48761;42.680;23.312;2022-12-05T15:28:58;95625.31;;;5.28;88.87
62697;BME280;48761;42.680;23.312;2022-12-05T15:31:26;95627.69;;;5.36;88.54
62697;BME280;48761;42.680;23.312;2022-12-05T15:33:56;95634.44;;;5.43;88.60
62697;BME280;48761;42.680;23.312;2022-12-05T15:36:29;95632.03;;;5.37;88.71
62697;BME280;48761;42.680;23.312;2022-12-05T15:39:02;95626.53;;;5.43;88.44
62697;BME280;48761;42.680;23.312;2022-12-05T15:41:28;95634.88;;;5.55;88.00
62697;BME280;48761;42.680;23.312;2022-12-05T15:43:56;95632.66;;;5.44;88.56